sensor_id;sensor_type;location;lat;lon;timestamp;pressure;altitude;pressure_sealevel;temperature;humidity
5872;BME280;2962;51.312;7.378;2023-04-07T00:00:49;97207.06;;;4.37;100.00
5872;BME280;2962;51.312;7.378;2023-04-07T00:03:15;97186.38;;;4.29;100.00
5872;BME280;2962;51.312;7.378;2023-04-07T00:05:40;97197.66;;;4.44;100.00
5872;BME280;2962;51.312;7.378;2023-04-07T00:08:05;97197.31;;;4.45;100.00
5872;BME280;2962;51.312;7.378;2023-04-07T00:10:31;97203.94;;;4.48;100.00
5872;BME280;2962;51.312;7.378;2023-04-07T00:12:57;97198.69;;;4.51;100.00
5872;BME280;2962;51.312;7.378;2023-04-07T00:15:22;97188.78;;;4.43;100.00
5872;BME280;2962;51.312;7.378;2023-04-07T00:17:47;97195.06;;;4.47;100.00
5872;BME280;2962;51.312;7.378;2023-04-07T00:20:13;97193.63;;;4.50;100.00
5872;BME280;2962;51.312;7.378;2023-04-07T00:22:38;97198.34;;;4.53;100.00
5872;BME280;2962;51.312;7.378;2023-04-07T00:25:04;97195.19;;;4.51;100.00
5872;BME280;2962;51.312;7.378;2023-04-07T00:27:29;97199.94;;;4.54;100.00
5872;BME280;2962;51.312;7.378;2023-04-07T00:29:55;97212.28;;;4.55;100.00
5872;BME280;2962;51.312;7.378;2023-04-07T00:32:21;97197.66;;;4.56;100.00
5872;BME280;2962;51.312;7.378;2023-04-07T00:34:46;97176.28;;;4.38;100.00
5872;BME280;2962;51.312;7.378;2023-04-07T00:37:11;97193.84;;;4.57;100.00
5872;BME280;2962;51.312;7.378;2023-04-07T00:39:37;97189.81;;;4.51;100.00
5872;BME280;2962;51.312;7.378;2023-04-07T00:42:02;97194.53;;;4.54;100.00
5872;BME280;2962;51.312;7.378;2023-04-07T00:44:29;97187.00;;;4.59;100.00
5872;BME280;2962;51.312;7.378;2023-04-07T00:46:54;97192.63;;;4.54;100.00
5872;BME280;2962;51.312;7.378;2023-04-07T00:49:19;97191.84;;;4.54;100.00
5872;BME280;2962;51.312;7.378;2023-04-07T00:51:45;97187.78;;;4.60;100.00
5872;BME280;2962;51.312;7.378;2023-04-07T00:54:10;97190.94;;;4.62;100.00
5872;BME280;2962;51.312;7.378;2023-04-07T00:56:36;97188.44;;;4.57;100.00
5872;BME280;2962;51.312;7.378;2023-04-07T00:59:03;97175.97;;;4.52;100.00
5872;BME280;2962;51.312;7.378;2023-04-07T01:01:49;97179.56;;;4.56;100.00
5872;BME280;2962;51.312;7.378;2023-04-07T01:04:32;97174.84;;;4.53;100.00
5872;BME280;2962;51.312;7.378;2023-04-07T01:07:12;97171.34;;;4.53;100.00
5872;BME280;2962;51.312;7.378;2023-04-07T01:09:48;97171.34;;;4.53;100.00
5872;BME280;2962;51.312;7.378;2023-04-07T01:14:56;97164.84;;;4.54;100.00
5872;BME280;2962;51.312;7.378;2023-04-07T01:17:24;97172.06;;;4.62;100.00
5872;BME280;2962;51.312;7.378;2023-04-07T01:20:01;97165.66;;;4.54;100.00
5872;BME280;2962;51.312;7.378;2023-04-07T01:22:54;97176.75;;;4.65;100.00
5872;BME280;2962;51.312;7.378;2023-04-07T01:25:52;97179.81;;;4.63;100.00
5872;BME280;2962;51.312;7.378;2023-04-07T01:28:53;97177.09;;;4.63;100.00
5872;BME280;2962;51.312;7.378;2023-04-07T01:31:21;97180.59;;;4.64;100.00
5872;BME280;2962;51.312;7.378;2023-04-07T01:33:48;97172.50;;;4.64;100.00
5872;BME280;2962;51.312;7.378;2023-04-07T01:36:15;97157.66;;;4.58;100.00
5872;BME280;2962;51.312;7.378;2023-04-07T01:38:42;97152.03;;;4.63;100.00
5872;BME280;2962;51.312;7.378;2023-04-07T01:41:08;97172.06;;;4.74;100.00
5872;BME280;2962;51.312;7.378;2023-04-07T01:43:36;97174.75;;;4.74;100.00
5872;BME280;2962;51.312;7.378;2023-04-07T01:46:04;97166.44;;;4.67;100.00
5872;BME280;2962;51.312;7.378;2023-04-07T01:48:29;97183.28;;;4.76;100.00
5872;BME280;2962;51.312;7.378;2023-04-07T01:50:55;97178.38;;;4.78;100.00
5872;BME280;2962;51.312;7.378;2023-04-07T01:53:22;97175.53;;;4.75;100.00
5872;BME280;2962;51.312;7.378;2023-04-07T01:55:47;97170.28;;;4.78;100.00
5872;BME280;2962;51.312;7.378;2023-04-07T01:58:13;97167.22;;;4.80;100.00
5872;BME280;2962;51.312;7.378;2023-04-07T02:00:38;97166.56;;;4.83;100.00
5872;BME280;2962;51.312;7.378;2023-04-07T02:03:27;97169.13;;;4.79;100.00
5872;BME280;2962;51.312;7.378;2023-04-07T02:06:03;97162.59;;;4.80;100.00
5872;BME280;2962;51.312;7.378;2023-04-07T02:08:31;97168.47;;;4.82;100.00
5872;BME280;2962;51.312;7.378;2023-04-07T02:10:58;97171.63;;;4.84;100.00
5872;BME280;2962;51.312;7.378;2023-04-07T02:13:25;97168.00;;;4.80;100.00
5872;BME280;2962;51.312;7.378;2023-04-07T02:15:52;97165.53;;;4.87;100.00
5872;BME280;2962;51.312;7.378;2023-04-07T02:18:18;97151.59;;;4.85;100.00
5872;BME280;2962;51.312;7.378;2023-04-07T02:20:44;97158.00;;;4.93;100.00
5872;BME280;2962;51.312;7.378;2023-04-07T02:23:11;97160.59;;;4.89;100.00
5872;BME280;2962;51.312;7.378;2023-04-07T02:25:37;97165.53;;;4.87;100.00
5872;BME280;2962;51.312;7.378;2023-04-07T02:28:03;97172.53;;;4.88;100.00
5872;BME280;2962;51.312;7.378;2023-04-07T02:30:30;97156.09;;;4.81;100.00
5872;BME280;2962;51.312;7.378;2023-04-07T02:32:55;97158.44;;;4.95;100.00
5872;BME280;2962;51.312;7.378;2023-04-07T02:35:21;97156.66;;;4.87;100.00
5872;BME280;2962;51.312;7.378;2023-04-07T02:37:46;97166.66;;;4.86;100.00
5872;BME280;2962;51.312;7.378;2023-04-07T02:40:12;97165.53;;;4.87;100.00
5872;BME280;2962;51.312;7.378;2023-04-07T02:42:38;97164.09;;;4.90;100.00
5872;BME280;2962;51.312;7.378;2023-04-07T02:45:04;97165.53;;;4.87;100.00
5872;BME280;2962;51.312;7.378;2023-04-07T02:47:31;97163.53;;;4.84;100.00
5872;BME280;2962;51.312;7.378;2023-04-07T02:49:57;97155.09;;;4.86;100.00
5872;BME280;2962;51.312;7.378;2023-04-07T02:52:22;97152.72;;;4.84;100.00
5872;BME280;2962;51.312;7.378;2023-04-07T02:54:47;97166.44;;;4.92;100.00
5872;BME280;2962;51.312;7.378;2023-04-07T02:57:13;97163.72;;;4.92;100.00
5872;BME280;2962;51.312;7.378;2023-04-07T02:59:38;97158.00;;;4.93;100.00
5872;BME280;2962;51.312;7.378;2023-04-07T03:02:04;97156.63;;;4.99;100.00
5872;BME280;2962;51.312;7.378;2023-04-07T03:04:30;97141.34;;;4.91;100.00
5872;BME280;2962;51.312;7.378;2023-04-07T03:06:56;97159.22;;;4.96;100.00
5872;BME280;2962;51.312;7.378;2023-04-07T03:09:21;97155.06;;;4.98;100.00
5872;BME280;2962;51.312;7.378;2023-04-07T03:11:47;97161.25;;;4.99;100.00
5872;BME280;2962;51.312;7.378;2023-04-07T03:14:12;97158.66;;;5.02;100.00
5872;BME280;2962;51.312;7.378;2023-04-07T03:16:37;97151.34;;;5.03;100.00
5872;BME280;2962;51.312;7.378;2023-04-07T03:19:02;97153.63;;;5.01;100.00
5872;BME280;2962;51.312;7.378;2023-04-07T03:21:28;97167.66;;;5.06;100.00
5872;BME280;2962;51.312;7.378;2023-04-07T03:23:53;97145.41;;;4.97;100.00
5872;BME280;2962;51.312;7.378;2023-04-07T03:26:19;97158.66;;;5.02;100.00
5872;BME280;2962;51.312;7.378;2023-04-07T03:28:46;97164.66;;;5.08;100.00
5872;BME280;2962;51.312;7.378;2023-04-07T03:31:11;97151.69;;;5.13;100.00
5872;BME280;2962;51.312;7.378;2023-04-07T03:33:36;97159.00;;;5.13;100.00
5872;BME280;2962;51.312;7.378;2023-04-07T03:36:01;97148.66;;;5.15;100.00
5872;BME280;2962;51.312;7.378;2023-04-07T03:38:27;97156.97;;;5.10;100.00
5872;BME280;2962;51.312;7.378;2023-04-07T03:40:52;97145.28;;;5.06;100.00
5872;BME280;2962;51.312;7.378;2023-04-07T03:43:18;97147.06;;;5.14;100.00
5872;BME280;2962;51.312;7.378;2023-04-07T03:45:43;97163.78;;;5.44;100.00
5872;BME280;2962;51.312;7.378;2023-04-07T03:48:08;97162.13;;;5.39;100.00
5872;BME280;2962;51.312;7.378;2023-04-07T03:50:38;97162.94;;;5.28;100.00
5872;BME280;2962;51.312;7.378;2023-04-07T03:53:04;97135.63;;;5.05;100.00
5872;BME280;2962;51.312;7.378;2023-04-07T03:55:29;97161.00;;;5.28;100.00
5872;BME280;2962;51.312;7.378;2023-04-07T03:57:55;97158.84;;;5.46;100.00
5872;BME280;2962;51.312;7.378;2023-04-07T04:00:20;97152.53;;;5.54;100.00
5872;BME280;2962;51.312;7.378;2023-04-07T04:02:46;97153.31;;;5.55;100.00
5872;BME280;2962;51.312;7.378;2023-04-07T04:05:11;97158.03;;;5.46;100.00
5872;BME280;2962;51.312;7.378;2023-04-07T04:07:36;97168.41;;;5.44;100.00
5872;BME280;2962;51.312;7.378;2023-04-07T04:10:01;97164.16;;;5.43;100.00
5872;BME280;2962;51.312;7.378;2023-04-07T04:12:27;97172.31;;;5.58;100.00
5872;BME280;2962;51.312;7.378;2023-04-07T04:14:53;97170.41;;;5.59;100.00
5872;BME280;2962;51.312;7.378;2023-04-07T04:17:18;97175.56;;;5.64;100.00
5872;BME280;2962;51.312;7.378;2023-04-07T04:19:43;97171.75;;;5.53;100.00
5872;BME280;2962;51.312;7.378;2023-04-07T04:22:08;97164.25;;;5.46;100.00
5872;BME280;2962;51.312;7.378;2023-04-07T04:24:34;97169.16;;;5.56;100.00
5872;BME280;2962;51.312;7.378;2023-04-07T04:26:59;97157.25;;;5.57;100.00
5872;BME280;2962;51.312;7.378;2023-04-07T04:29:26;97170.41;;;5.59;100.00
5872;BME280;2962;51.312;7.378;2023-04-07T04:31:51;97147.34;;;5.49;100.00
5872;BME280;2962;51.312;7.378;2023-04-07T04:34:16;97168.13;;;5.61;100.00
5872;BME280;2962;51.312;7.378;2023-04-07T04:36:42;97180.13;;;5.76;100.00
5872;BME280;2962;51.312;7.378;2023-04-07T04:39:07;97155.69;;;5.44;100.00
5872;BME280;2962;51.312;7.378;2023-04-07T04:41:32;97187.25;;;5.68;100.00
5872;BME280;2962;51.312;7.378;2023-04-07T04:43:58;97186.69;;;5.75;100.00
5872;BME280;2962;51.312;7.378;2023-04-07T04:46:23;97177.94;;;5.66;100.00
5872;BME280;2962;51.312;7.378;2023-04-07T04:48:49;97185.13;;;5.74;100.00
5872;BME280;2962;51.312;7.378;2023-04-07T04:51:15;97169.00;;;5.77;100.00
5872;BME280;2962;51.312;7.378;2023-04-07T04:53:41;97183.94;;;5.87;100.00
5872;BME280;2962;51.312;7.378;2023-04-07T04:56:07;97182.13;;;5.91;100.00
5872;BME280;2962;51.312;7.378;2023-04-07T04:58:33;97176.97;;;5.86;100.00
5872;BME280;2962;51.312;7.378;2023-04-07T05:00:58;97185.84;;;5.99;100.00
5872;BME280;2962;51.312;7.378;2023-04-07T05:03:24;97183.25;;;5.90;100.00
5872;BME280;2962;51.312;7.378;2023-04-07T05:05:52;97184.81;;;5.91;100.00
5872;BME280;2962;51.312;7.378;2023-04-07T05:08:17;97186.88;;;5.94;100.00
5872;BME280;2962;51.312;7.378;2023-04-07T05:10:43;97190.34;;;5.95;100.00
5872;BME280;2962;51.312;7.378;2023-04-07T05:13:08;97192.03;;;5.99;100.00
5872;BME280;2962;51.312;7.378;2023-04-07T05:15:34;97195.44;;;5.96;100.00
5872;BME280;2962;51.312;7.378;2023-04-07T05:17:59;97192.28;;;5.94;100.00
5872;BME280;2962;51.312;7.378;2023-04-07T05:20:25;97190.13;;;5.87;100.00
5872;BME280;2962;51.312;7.378;2023-04-07T05:22:50;97198.34;;;5.91;100.00
5872;BME280;2962;51.312;7.378;2023-04-07T05:25:15;97204.34;;;5.97;100.00
5872;BME280;2962;51.312;7.378;2023-04-07T05:27:41;97199.13;;;5.92;100.00
5872;BME280;2962;51.312;7.378;2023-04-07T05:30:07;97208.72;;;6.01;100.00
5872;BME280;2962;51.312;7.378;2023-04-07T05:32:32;97207.94;;;6.01;100.00
5872;BME280;2962;51.312;7.378;2023-04-07T05:34:57;97191.50;;;5.94;100.00
5872;BME280;2962;51.312;7.378;2023-04-07T05:37:23;97210.53;;;5.97;100.00
5872;BME280;2962;51.312;7.378;2023-04-07T05:39:48;97207.47;;;5.99;100.00
5872;BME280;2962;51.312;7.378;2023-04-07T05:42:13;97209.75;;;5.97;100.00
5872;BME280;2962;51.312;7.378;2023-04-07T05:44:39;97216.13;;;6.04;100.00
5872;BME280;2962;51.312;7.378;2023-04-07T05:47:04;97198.16;;;5.96;100.00
5872;BME280;2962;51.312;7.378;2023-04-07T05:49:33;97210.63;;;6.01;100.00
5872;BME280;2962;51.312;7.378;2023-04-07T05:51:59;97218.75;;;6.01;100.00
5872;BME280;2962;51.312;7.378;2023-04-07T05:54:24;97211.22;;;5.94;100.00
5872;BME280;2962;51.312;7.378;2023-04-07T05:56:49;97216.47;;;5.91;100.00
5872;BME280;2962;51.312;7.378;2023-04-07T05:59:15;97200.41;;;5.82;100.00
5872;BME280;2962;51.312;7.378;2023-04-07T06:01:41;97216.84;;;5.89;100.00
5872;BME280;2962;51.312;7.378;2023-04-07T06:04:06;97221.00;;;5.86;100.00
5872;BME280;2962;51.312;7.378;2023-04-07T06:06:31;97222.47;;;5.84;100.00
5872;BME280;2962;51.312;7.378;2023-04-07T06:08:57;97245.69;;;5.97;100.00
5872;BME280;2962;51.312;7.378;2023-04-07T06:11:22;97233.19;;;5.93;100.00
5872;BME280;2962;51.312;7.378;2023-04-07T06:13:47;97235.91;;;5.93;100.00
5872;BME280;2962;51.312;7.378;2023-04-07T06:16:13;97241.69;;;6.07;100.00
5872;BME280;2962;51.312;7.378;2023-04-07T06:18:38;97241.94;;;6.02;100.00
5872;BME280;2962;51.312;7.378;2023-04-07T06:21:04;97233.50;;;5.91;100.00
5872;BME280;2962;51.312;7.378;2023-04-07T06:23:30;97236.59;;;5.77;100.00
5872;BME280;2962;51.312;7.378;2023-04-07T06:28:30;97154.25;;;5.22;100.00
5872;BME280;2962;51.312;7.378;2023-04-07T06:30:57;97129.75;;;5.03;100.00
5872;BME280;2962;51.312;7.378;2023-04-07T06:33:22;97158.66;;;5.14;100.00
5872;BME280;2962;51.312;7.378;2023-04-07T06:35:50;97156.53;;;5.08;100.00
5872;BME280;2962;51.312;7.378;2023-04-07T06:38:16;97251.41;;;5.83;100.00
5872;BME280;2962;51.312;7.378;2023-04-07T06:40:41;97144.72;;;5.12;100.00
5872;BME280;2962;51.312;7.378;2023-04-07T06:43:07;97167.75;;;5.34;100.00
5872;BME280;2962;51.312;7.378;2023-04-07T06:45:33;97169.34;;;5.35;100.00
5872;BME280;2962;51.312;7.378;2023-04-07T06:47:58;97169.09;;;5.41;100.00
5872;BME280;2962;51.312;7.378;2023-04-07T06:50:24;97181.91;;;5.44;100.00
5872;BME280;2962;51.312;7.378;2023-04-07T06:52:49;97190.81;;;5.44;100.00
5872;BME280;2962;51.312;7.378;2023-04-07T06:55:15;97177.66;;;5.30;100.00
5872;BME280;2962;51.312;7.378;2023-04-07T06:57:40;97229.78;;;5.83;100.00
5872;BME280;2962;51.312;7.378;2023-04-07T07:00:08;97179.47;;;5.38;100.00
5872;BME280;2962;51.312;7.378;2023-04-07T07:02:33;97260.44;;;5.75;100.00
5872;BME280;2962;51.312;7.378;2023-04-07T07:04:59;97198.81;;;5.28;100.00
5872;BME280;2962;51.312;7.378;2023-04-07T07:07:25;97192.28;;;5.29;100.00
5872;BME280;2962;51.312;7.378;2023-04-07T07:09:51;97179.69;;;5.33;100.00
5872;BME280;2962;51.312;7.378;2023-04-07T07:12:16;97178.56;;;5.22;100.00
5872;BME280;2962;51.312;7.378;2023-04-07T07:14:42;97211.78;;;5.35;100.00
5872;BME280;2962;51.312;7.378;2023-04-07T07:17:08;97264.50;;;5.81;100.00
5872;BME280;2962;51.312;7.378;2023-04-07T07:19:34;97186.09;;;5.41;100.00
5872;BME280;2962;51.312;7.378;2023-04-07T07:22:00;97195.09;;;5.33;100.00
5872;BME280;2962;51.312;7.378;2023-04-07T07:24:28;97175.97;;;5.26;100.00
5872;BME280;2962;51.312;7.378;2023-04-07T07:26:54;97279.44;;;5.91;100.00
5872;BME280;2962;51.312;7.378;2023-04-07T07:29:21;97210.06;;;5.30;100.00
5872;BME280;2962;51.312;7.378;2023-04-07T07:31:46;97193.56;;;5.20;100.00
5872;BME280;2962;51.312;7.378;2023-04-07T07:34:12;97272.28;;;5.71;100.00
5872;BME280;2962;51.312;7.378;2023-04-07T07:36:38;97264.97;;;5.71;100.00
5872;BME280;2962;51.312;7.378;2023-04-07T07:39:04;97299.53;;;5.90;100.00
5872;BME280;2962;51.312;7.378;2023-04-07T07:41:30;97330.19;;;5.94;100.00
5872;BME280;2962;51.312;7.378;2023-04-07T07:43:55;97191.41;;;5.13;100.00
5872;BME280;2962;51.312;7.378;2023-04-07T07:46:21;97209.63;;;5.41;100.00
5872;BME280;2962;51.312;7.378;2023-04-07T07:48:48;97288.84;;;5.81;100.00
5872;BME280;2962;51.312;7.378;2023-04-07T07:51:13;97316.53;;;6.03;100.00
5872;BME280;2962;51.312;7.378;2023-04-07T07:53:39;97300.75;;;6.05;100.00
5872;BME280;2962;51.312;7.378;2023-04-07T07:56:05;97318.13;;;6.04;100.00
5872;BME280;2962;51.312;7.378;2023-04-07T07:58:30;97316.06;;;6.13;100.00
5872;BME280;2962;51.312;7.378;2023-04-07T08:00:56;97314.59;;;6.16;100.00
5872;BME280;2962;51.312;7.378;2023-04-07T08:03:21;97325.41;;;6.16;100.00
5872;BME280;2962;51.312;7.378;2023-04-07T08:05:47;97326.03;;;5.97;100.00
5872;BME280;2962;51.312;7.378;2023-04-07T08:08:13;97330.06;;;6.15;100.00
5872;BME280;2962;51.312;7.378;2023-04-07T08:10:38;97340.38;;;6.25;100.00
5872;BME280;2962;51.312;7.378;2023-04-07T08:13:04;97345.78;;;6.25;100.00
5872;BME280;2962;51.312;7.378;2023-04-07T08:15:29;97337.25;;;6.23;100.00
5872;BME280;2962;51.312;7.378;2023-04-07T08:17:54;97340.25;;;6.22;100.00
5872;BME280;2962;51.312;7.378;2023-04-07T08:20:20;97338.38;;;6.10;100.00
5872;BME280;2962;51.312;7.378;2023-04-07T08:22:45;97333.53;;;6.03;100.00
5872;BME280;2962;51.312;7.378;2023-04-07T08:25:10;97342.22;;;6.09;100.00
5872;BME280;2962;51.312;7.378;2023-04-07T08:27:36;97328.34;;;6.10;100.00
5872;BME280;2962;51.312;7.378;2023-04-07T08:30:03;97344.34;;;6.16;100.00
5872;BME280;2962;51.312;7.378;2023-04-07T08:32:43;97356.78;;;6.04;100.00
5872;BME280;2962;51.312;7.378;2023-04-07T08:35:09;97360.69;;;6.07;100.00
5872;BME280;2962;51.312;7.378;2023-04-07T08:37:36;97354.41;;;6.15;100.00
5872;BME280;2962;51.312;7.378;2023-04-07T08:40:02;97352.00;;;6.14;100.00
5872;BME280;2962;51.312;7.378;2023-04-07T08:42:33;97355.28;;;6.19;100.00
5872;BME280;2962;51.312;7.378;2023-04-07T08:45:04;97364.50;;;6.30;100.00
5872;BME280;2962;51.312;7.378;2023-04-07T08:47:31;97356.59;;;6.25;100.00
5872;BME280;2962;51.312;7.378;2023-04-07T08:50:01;97362.03;;;6.25;100.00
5872;BME280;2962;51.312;7.378;2023-04-07T08:52:39;97339.75;;;6.04;100.00
5872;BME280;2962;51.312;7.378;2023-04-07T08:55:06;97363.72;;;6.18;100.00
5872;BME280;2962;51.312;7.378;2023-04-07T08:57:33;97355.59;;;6.18;100.00
5872;BME280;2962;51.312;7.378;2023-04-07T08:59:59;97370.25;;;6.29;100.00
5872;BME280;2962;51.312;7.378;2023-04-07T09:02:38;97383.00;;;6.28;100.00
5872;BME280;2962;51.312;7.378;2023-04-07T09:05:05;97375.22;;;6.15;100.00
5872;BME280;2962;51.312;7.378;2023-04-07T09:07:32;97379.16;;;6.17;100.00
5872;BME280;2962;51.312;7.378;2023-04-07T09:09:57;97382.44;;;6.23;100.00
5872;BME280;2962;51.312;7.378;2023-04-07T09:12:23;97380.53;;;6.23;100.00
5872;BME280;2962;51.312;7.378;2023-04-07T09:14:48;97373.19;;;6.24;100.00
5872;BME280;2962;51.312;7.378;2023-04-07T09:17:14;97387.81;;;6.35;100.00
5872;BME280;2962;51.312;7.378;2023-04-07T09:19:39;97389.06;;;6.25;100.00
5872;BME280;2962;51.312;7.378;2023-04-07T09:22:05;97388.75;;;6.27;100.00
5872;BME280;2962;51.312;7.378;2023-04-07T09:24:30;97373.53;;;6.10;100.00
5872;BME280;2962;51.312;7.378;2023-04-07T09:27:14;97391.22;;;6.32;100.00
5872;BME280;2962;51.312;7.378;2023-04-07T09:29:42;97384.34;;;6.34;100.00
5872;BME280;2962;51.312;7.378;2023-04-07T09:32:08;97385.75;;;6.44;100.00
5872;BME280;2962;51.312;7.378;2023-04-07T09:34:38;97394.25;;;6.43;100.00
5872;BME280;2962;51.312;7.378;2023-04-07T09:37:05;97391.97;;;6.45;100.00
5872;BME280;2962;51.312;7.378;2023-04-07T09:39:31;97399.53;;;6.39;100.00
5872;BME280;2962;51.312;7.378;2023-04-07T09:41:57;97389.41;;;6.36;100.00
5872;BME280;2962;51.312;7.378;2023-04-07T09:44:24;97396.38;;;6.37;100.00
5872;BME280;2962;51.312;7.378;2023-04-07T09:46:54;97389.66;;;6.31;100.00
5872;BME280;2962;51.312;7.378;2023-04-07T09:49:22;97371.03;;;6.29;100.00
5872;BME280;2962;51.312;7.378;2023-04-07T09:52:06;97377.78;;;6.35;100.00
5872;BME280;2962;51.312;7.378;2023-04-07T09:54:39;97383.44;;;6.30;100.00
5872;BME280;2962;51.312;7.378;2023-04-07T09:57:09;97395.06;;;6.31;100.00
5872;BME280;2962;51.312;7.378;2023-04-07T09:59:39;97402.22;;;6.51;100.00
5872;BME280;2962;51.312;7.378;2023-04-07T10:02:07;97383.19;;;6.35;100.00
5872;BME280;2962;51.312;7.378;2023-04-07T10:04:32;97385.75;;;6.44;100.00
5872;BME280;2962;51.312;7.378;2023-04-07T10:06:59;97398.72;;;6.51;100.00
5872;BME280;2962;51.312;7.378;2023-04-07T10:09:28;97396.69;;;6.48;100.00
5872;BME280;2962;51.312;7.378;2023-04-07T10:11:55;97401.00;;;6.36;100.00
5872;BME280;2962;51.312;7.378;2023-04-07T10:14:25;97411.69;;;6.45;100.00
5872;BME280;2962;51.312;7.378;2023-04-07T10:16:51;97419.47;;;6.47;100.00
5872;BME280;2962;51.312;7.378;2023-04-07T10:19:18;97406.28;;;6.45;100.00
5872;BME280;2962;51.312;7.378;2023-04-07T10:21:44;97409.78;;;6.46;100.00
5872;BME280;2962;51.312;7.378;2023-04-07T10:24:35;97414.28;;;6.54;100.00
5872;BME280;2962;51.312;7.378;2023-04-07T10:27:04;97419.03;;;6.45;100.00
5872;BME280;2962;51.312;7.378;2023-04-07T10:29:40;97414.09;;;6.34;100.00
5872;BME280;2962;51.312;7.378;2023-04-07T10:32:06;97424.78;;;6.43;100.00
5872;BME280;2962;51.312;7.378;2023-04-07T10:37:17;97424.44;;;6.45;100.00
5872;BME280;2962;51.312;7.378;2023-04-07T10:39:46;97424.66;;;6.52;100.00
5872;BME280;2962;51.312;7.378;2023-04-07T10:45:03;97424.91;;;6.47;100.00
5872;BME280;2962;51.312;7.378;2023-04-07T10:47:29;97427.50;;;6.43;100.00
5872;BME280;2962;51.312;7.378;2023-04-07T10:50:14;97434.16;;;6.46;100.00
5872;BME280;2962;51.312;7.378;2023-04-07T10:52:40;97423.00;;;6.35;100.00
5872;BME280;2962;51.312;7.378;2023-04-07T10:55:29;97441.34;;;6.42;100.00
5872;BME280;2962;51.312;7.378;2023-04-07T10:58:15;97419.06;;;6.32;100.00
5872;BME280;2962;51.312;7.378;2023-04-07T11:00:42;97437.50;;;6.55;100.00
5872;BME280;2962;51.312;7.378;2023-04-07T11:03:29;97433.22;;;6.54;100.00
5872;BME280;2962;51.312;7.378;2023-04-07T11:06:08;97437.03;;;6.65;100.00
5872;BME280;2962;51.312;7.378;2023-04-07T11:08:36;97446.28;;;6.64;100.00
5872;BME280;2962;51.312;7.378;2023-04-07T11:11:05;97446.41;;;6.55;100.00
5872;BME280;2962;51.312;7.378;2023-04-07T11:13:53;97446.34;;;6.40;100.00
5872;BME280;2962;51.312;7.378;2023-04-07T11:16:19;97443.63;;;6.40;100.00
5872;BME280;2962;51.312;7.378;2023-04-07T11:18:58;97439.66;;;6.37;100.00
5872;BME280;2962;51.312;7.378;2023-04-07T11:21:23;97450.81;;;6.48;100.00
5872;BME280;2962;51.312;7.378;2023-04-07T11:23:49;97449.94;;;6.44;100.00
5872;BME280;2962;51.312;7.378;2023-04-07T11:26:14;97441.81;;;6.44;100.00
5872;BME280;2962;51.312;7.378;2023-04-07T11:28:54;97457.34;;;6.59;100.00
5872;BME280;2962;51.312;7.378;2023-04-07T11:31:21;97457.00;;;6.60;100.00
5872;BME280;2962;51.312;7.378;2023-04-07T11:33:54;97459.28;;;6.58;100.00
5872;BME280;2962;51.312;7.378;2023-04-07T11:36:46;97454.59;;;6.71;100.00
5872;BME280;2962;51.312;7.378;2023-04-07T11:39:20;97464.28;;;6.84;100.00
5872;BME280;2962;51.312;7.378;2023-04-07T11:41:48;97452.16;;;6.66;100.00
5872;BME280;2962;51.312;7.378;2023-04-07T11:44:13;97446.72;;;6.66;100.00
5872;BME280;2962;51.312;7.378;2023-04-07T11:46:56;97463.25;;;6.89;100.00
5872;BME280;2962;51.312;7.378;2023-04-07T11:49:24;97456.00;;;6.65;100.00
5872;BME280;2962;51.312;7.378;2023-04-07T11:52:01;97461.84;;;6.67;100.00
5872;BME280;2962;51.312;7.378;2023-04-07T11:54:48;97477.25;;;6.79;100.00
5872;BME280;2962;51.312;7.378;2023-04-07T11:57:28;97477.47;;;6.86;100.00
5872;BME280;2962;51.312;7.378;2023-04-07T12:00:06;97477.84;;;6.84;100.00
5872;BME280;2962;51.312;7.378;2023-04-07T12:02:33;97477.22;;;6.91;100.00
5872;BME280;2962;51.312;7.378;2023-04-07T12:04:58;97475.59;;;6.74;100.00
5872;BME280;2962;51.312;7.378;2023-04-07T12:07:24;97481.78;;;6.75;100.00
5872;BME280;2962;51.312;7.378;2023-04-07T12:09:49;97493.72;;;6.86;100.00
5872;BME280;2962;51.312;7.378;2023-04-07T12:12:24;97474.78;;;6.86;100.00
5872;BME280;2962;51.312;7.378;2023-04-07T12:14:51;97493.53;;;7.07;100.00
5872;BME280;2962;51.312;7.378;2023-04-07T12:17:24;97477.78;;;6.97;100.00
5872;BME280;2962;51.312;7.378;2023-04-07T12:19:51;97495.19;;;6.83;100.00
5872;BME280;2962;51.312;7.378;2023-04-07T12:22:16;97484.28;;;6.68;100.00
5872;BME280;2962;51.312;7.378;2023-04-07T12:24:41;97501.22;;;6.52;100.00
5872;BME280;2962;51.312;7.378;2023-04-07T12:27:07;97497.97;;;6.47;100.00
5872;BME280;2962;51.312;7.378;2023-04-07T12:29:33;97499.44;;;6.44;100.00
5872;BME280;2962;51.312;7.378;2023-04-07T12:31:58;97510.69;;;6.58;100.00
5872;BME280;2962;51.312;7.378;2023-04-07T12:34:24;97502.09;;;6.81;100.00
5872;BME280;2962;51.312;7.378;2023-04-07T12:36:51;97503.22;;;6.80;100.00
5872;BME280;2962;51.312;7.378;2023-04-07T12:39:16;97500.41;;;6.64;100.00
5872;BME280;2962;51.312;7.378;2023-04-07T12:41:42;97499.09;;;6.46;100.00
5872;BME280;2962;51.312;7.378;2023-04-07T12:44:08;97509.22;;;6.61;100.00
5872;BME280;2962;51.312;7.378;2023-04-07T12:46:34;97509.22;;;6.49;100.00
5872;BME280;2962;51.312;7.378;2023-04-07T12:48:59;97522.56;;;6.54;100.00
5872;BME280;2962;51.312;7.378;2023-04-07T12:51:25;97519.16;;;6.69;100.00
5872;BME280;2962;51.312;7.378;2023-04-07T12:53:51;97511.16;;;6.73;100.00
5872;BME280;2962;51.312;7.378;2023-04-07T12:56:18;97515.19;;;6.79;100.00
5872;BME280;2962;51.312;7.378;2023-04-07T12:58:43;97520.03;;;6.85;100.00
5872;BME280;2962;51.312;7.378;2023-04-07T13:01:08;97515.41;;;6.86;100.00
5872;BME280;2962;51.312;7.378;2023-04-07T13:03:34;97513.72;;;6.81;100.00
5872;BME280;2962;51.312;7.378;2023-04-07T13:06:00;97521.47;;;6.83;100.00
5872;BME280;2962;51.312;7.378;2023-04-07T13:08:28;97498.03;;;6.75;100.00
5872;BME280;2962;51.312;7.378;2023-04-07T13:10:54;97527.94;;;6.78;100.00
5872;BME280;2962;51.312;7.378;2023-04-07T13:13:20;97515.97;;;6.67;100.00
5872;BME280;2962;51.312;7.378;2023-04-07T13:15:45;97517.56;;;6.80;100.00
5872;BME280;2962;51.312;7.378;2023-04-07T13:18:11;97521.13;;;6.97;100.00
5872;BME280;2962;51.312;7.378;2023-04-07T13:20:36;97526.13;;;6.82;100.00
5872;BME280;2962;51.312;7.378;2023-04-07T13:23:01;97522.28;;;6.71;100.00
5872;BME280;2962;51.312;7.378;2023-04-07T13:25:27;97536.63;;;6.59;100.00
5872;BME280;2962;51.312;7.378;2023-04-07T13:27:52;97533.38;;;6.66;100.00
5872;BME280;2962;51.312;7.378;2023-04-07T13:30:17;97532.22;;;6.79;100.00
5872;BME280;2962;51.312;7.378;2023-04-07T13:32:42;97522.16;;;6.80;100.00
5872;BME280;2962;51.312;7.378;2023-04-07T13:35:08;97521.88;;;6.69;100.00